| Date | Time | Temp. (oF) | Dew Point (oF) | Rel. Hum. (%) | Press. (in.) | Wind Dir. | Wind Speed (mph) | Hourly Rainfall (in.) |
|
|---|---|---|---|---|---|---|---|---|---|
| 1 | 10/11 | 00:00 | 57 | 56 | 98 | 29.75 | SW | 0 | 0.00 |
| 2 | 10/10 | 23:00 | 58 | 57 | 98 | 29.75 | SW | 0 | 0.00 |
| 3 | 10/10 | 22:00 | 60 | 58 | 94 | 29.75 | SW | 0 | 0.00 |
| 4 | 10/10 | 21:00 | 61 | 56 | 84 | 29.74 | SW | 0 | 0.00 |
| 5 | 10/10 | 20:00 | 65 | 53 | 67 | 29.75 | SW | 0 | 0.00 |
| 6 | 10/10 | 19:00 | 69 | 52 | 56 | 29.75 | SW | 2 | 0.00 |
| 7 | 10/10 | 18:00 | 73 | 51 | 47 | 29.74 | SW | 3 | 0.00 |
| 8 | 10/10 | 17:00 | 77 | 51 | 41 | 29.75 | SW | 4 | 0.00 |
| 9 | 10/10 | 16:00 | 76 | 50 | 41 | 29.77 | WSW | 2 | 0.00 |
| 10 | 10/10 | 15:00 | 74 | 48 | 41 | 29.80 | WNW | 3 | 0.00 |
| 11 | 10/10 | 14:00 | 73 | 48 | 42 | 29.84 | NW | 0 | 0.00 |
| 12 | 10/10 | 13:00 | 71 | 46 | 42 | 29.89 | SW | 4 | 0.00 |
| 13 | 10/10 | 12:00 | 66 | 43 | 45 | 29.92 | SW | 3 | 0.00 |
| 14 | 10/10 | 11:00 | 63 | 43 | 49 | 29.96 | E | 2 | 0.00 |
| 15 | 10/10 | 10:00 | 56 | 44 | 66 | 29.99 | W | 0 | 0.00 |
| 16 | 10/10 | 09:00 | 51 | 47 | 89 | 30.01 | S | 0 | 0.00 |
| 17 | 10/10 | 08:00 | 44 | 42 | 96 | 30.02 | ENE | 0 | 0.00 |
| 18 | 10/10 | 07:00 | 44 | 43 | 98 | 30.02 | ENE | 0 | 0.00 |
| 19 | 10/10 | 06:00 | 44 | 43 | 99 | 30.02 | SSW | 0 | 0.00 |
| 20 | 10/10 | 05:00 | 45 | 45 | 100 | 30.01 | SSW | 0 | 0.00 |
| 21 | 10/10 | 04:00 | 47 | 46 | 100 | 30.01 | SSW | 0 | 0.00 |
| 22 | 10/10 | 03:00 | 49 | 49 | 100 | 30.01 | SSW | 0 | 0.00 |
| 23 | 10/10 | 02:00 | 50 | 50 | 100 | 30.01 | SSW | 0 | 0.00 |
| 24 | 10/10 | 01:00 | 51 | 50 | 100 | 30.01 | NE | 0 | 0.00 |